sensor_id;sensor_type;location;lat;lon;timestamp;P1;durP1;ratioP1;P2;durP2;ratioP2
69912;SDS011;57198;52.082;5.108;2023-03-26T00:01:19;14.00;;;3.28;;
69912;SDS011;57198;52.082;5.108;2023-03-26T00:03:49;14.45;;;3.28;;
69912;SDS011;57198;52.082;5.108;2023-03-26T00:06:27;13.45;;;3.28;;
69912;SDS011;57198;52.082;5.108;2023-03-26T00:08:56;17.50;;;3.60;;
69912;SDS011;57198;52.082;5.108;2023-03-26T00:11:24;14.35;;;3.00;;
69912;SDS011;57198;52.082;5.108;2023-03-26T00:13:53;12.65;;;3.35;;
69912;SDS011;57198;52.082;5.108;2023-03-26T00:16:25;18.27;;;3.15;;
69912;SDS011;57198;52.082;5.108;2023-03-26T00:18:53;19.85;;;3.97;;
69912;SDS011;57198;52.082;5.108;2023-03-26T00:21:21;20.30;;;3.67;;
69912;SDS011;57198;52.082;5.108;2023-03-26T00:23:53;24.75;;;3.92;;
69912;SDS011;57198;52.082;5.108;2023-03-26T00:26:21;22.40;;;4.28;;
69912;SDS011;57198;52.082;5.108;2023-03-26T00:28:49;20.42;;;3.78;;
69912;SDS011;57198;52.082;5.108;2023-03-26T00:31:16;29.17;;;4.53;;
69912;SDS011;57198;52.082;5.108;2023-03-26T00:33:44;22.70;;;4.13;;
69912;SDS011;57198;52.082;5.108;2023-03-26T00:36:13;25.70;;;4.50;;
69912;SDS011;57198;52.082;5.108;2023-03-26T00:38:42;38.92;;;5.40;;
69912;SDS011;57198;52.082;5.108;2023-03-26T00:41:13;22.95;;;5.45;;
69912;SDS011;57198;52.082;5.108;2023-03-26T00:43:49;23.38;;;4.30;;
69912;SDS011;57198;52.082;5.108;2023-03-26T00:46:17;30.00;;;4.33;;
69912;SDS011;57198;52.082;5.108;2023-03-26T00:48:45;31.50;;;5.32;;
69912;SDS011;57198;52.082;5.108;2023-03-26T00:51:13;36.88;;;6.03;;
69912;SDS011;57198;52.082;5.108;2023-03-26T00:53:44;40.88;;;5.82;;
69912;SDS011;57198;52.082;5.108;2023-03-26T00:56:12;35.00;;;6.05;;
69912;SDS011;57198;52.082;5.108;2023-03-26T00:58:40;33.23;;;4.77;;
69912;SDS011;57198;52.082;5.108;2023-03-26T01:01:09;29.08;;;4.55;;
69912;SDS011;57198;52.082;5.108;2023-03-26T01:03:39;32.58;;;5.85;;
69912;SDS011;57198;52.082;5.108;2023-03-26T01:06:23;37.60;;;5.97;;
69912;SDS011;57198;52.082;5.108;2023-03-26T01:08:53;37.58;;;6.38;;
69912;SDS011;57198;52.082;5.108;2023-03-26T01:11:26;41.17;;;5.43;;
69912;SDS011;57198;52.082;5.108;2023-03-26T01:13:56;37.85;;;6.00;;
69912;SDS011;57198;52.082;5.108;2023-03-26T01:16:30;36.38;;;5.95;;
69912;SDS011;57198;52.082;5.108;2023-03-26T01:19:05;34.45;;;6.13;;
69912;SDS011;57198;52.082;5.108;2023-03-26T01:21:35;27.80;;;5.45;;
69912;SDS011;57198;52.082;5.108;2023-03-26T01:24:05;37.73;;;5.73;;
69912;SDS011;57198;52.082;5.108;2023-03-26T01:29:06;49.05;;;5.82;;
69912;SDS011;57198;52.082;5.108;2023-03-26T01:31:36;45.88;;;6.60;;
69912;SDS011;57198;52.082;5.108;2023-03-26T01:36:38;42.30;;;6.60;;
69912;SDS011;57198;52.082;5.108;2023-03-26T01:39:11;45.72;;;6.75;;
69912;SDS011;57198;52.082;5.108;2023-03-26T01:41:44;43.78;;;6.15;;
69912;SDS011;57198;52.082;5.108;2023-03-26T01:46:43;39.85;;;6.28;;
69912;SDS011;57198;52.082;5.108;2023-03-26T01:49:11;50.80;;;6.93;;
69912;SDS011;57198;52.082;5.108;2023-03-26T01:51:40;47.78;;;7.07;;
69912;SDS011;57198;52.082;5.108;2023-03-26T01:54:09;45.00;;;6.30;;
69912;SDS011;57198;52.082;5.108;2023-03-26T01:56:49;34.90;;;4.90;;
69912;SDS011;57198;52.082;5.108;2023-03-26T02:01:53;38.93;;;5.87;;
69912;SDS011;57198;52.082;5.108;2023-03-26T02:04:29;45.50;;;5.78;;
69912;SDS011;57198;52.082;5.108;2023-03-26T02:09:41;37.90;;;5.28;;
69912;SDS011;57198;52.082;5.108;2023-03-26T02:12:12;36.92;;;6.43;;
69912;SDS011;57198;52.082;5.108;2023-03-26T02:14:40;44.03;;;6.17;;
69912;SDS011;57198;52.082;5.108;2023-03-26T02:17:08;42.80;;;6.97;;
69912;SDS011;57198;52.082;5.108;2023-03-26T02:19:39;40.28;;;5.97;;
69912;SDS011;57198;52.082;5.108;2023-03-26T02:22:11;45.40;;;7.68;;
69912;SDS011;57198;52.082;5.108;2023-03-26T02:24:43;44.70;;;6.97;;
69912;SDS011;57198;52.082;5.108;2023-03-26T02:27:11;43.70;;;6.87;;
69912;SDS011;57198;52.082;5.108;2023-03-26T02:29:39;50.40;;;6.35;;
69912;SDS011;57198;52.082;5.108;2023-03-26T02:32:10;34.88;;;5.85;;
69912;SDS011;57198;52.082;5.108;2023-03-26T02:34:39;51.13;;;7.47;;
69912;SDS011;57198;52.082;5.108;2023-03-26T02:37:06;35.80;;;6.03;;
69912;SDS011;57198;52.082;5.108;2023-03-26T02:39:35;35.53;;;6.47;;
69912;SDS011;57198;52.082;5.108;2023-03-26T02:42:10;39.05;;;6.05;;
69912;SDS011;57198;52.082;5.108;2023-03-26T02:44:44;39.83;;;7.07;;
69912;SDS011;57198;52.082;5.108;2023-03-26T02:47:17;43.38;;;7.45;;
69912;SDS011;57198;52.082;5.108;2023-03-26T02:50:08;37.17;;;7.05;;
69912;SDS011;57198;52.082;5.108;2023-03-26T02:52:50;31.20;;;8.33;;
69912;SDS011;57198;52.082;5.108;2023-03-26T02:55:17;37.00;;;7.72;;
69912;SDS011;57198;52.082;5.108;2023-03-26T02:57:46;36.35;;;7.55;;
69912;SDS011;57198;52.082;5.108;2023-03-26T03:00:16;37.75;;;7.65;;
69912;SDS011;57198;52.082;5.108;2023-03-26T03:02:52;32.03;;;8.27;;
69912;SDS011;57198;52.082;5.108;2023-03-26T03:05:29;33.77;;;8.47;;
69912;SDS011;57198;52.082;5.108;2023-03-26T03:08:12;37.30;;;7.68;;
69912;SDS011;57198;52.082;5.108;2023-03-26T03:10:59;38.00;;;8.27;;
69912;SDS011;57198;52.082;5.108;2023-03-26T03:13:44;33.13;;;7.43;;
69912;SDS011;57198;52.082;5.108;2023-03-26T03:16:16;34.33;;;7.55;;
69912;SDS011;57198;52.082;5.108;2023-03-26T03:18:43;40.87;;;6.93;;
69912;SDS011;57198;52.082;5.108;2023-03-26T03:21:13;38.05;;;7.47;;
69912;SDS011;57198;52.082;5.108;2023-03-26T03:23:40;35.20;;;7.25;;
69912;SDS011;57198;52.082;5.108;2023-03-26T03:26:12;35.70;;;7.30;;
69912;SDS011;57198;52.082;5.108;2023-03-26T03:28:44;29.83;;;6.95;;
69912;SDS011;57198;52.082;5.108;2023-03-26T03:31:14;37.23;;;7.50;;
69912;SDS011;57198;52.082;5.108;2023-03-26T03:33:42;39.13;;;7.47;;
69912;SDS011;57198;52.082;5.108;2023-03-26T03:36:13;30.50;;;7.47;;
69912;SDS011;57198;52.082;5.108;2023-03-26T03:38:54;35.03;;;7.40;;
69912;SDS011;57198;52.082;5.108;2023-03-26T03:41:28;36.72;;;7.85;;
69912;SDS011;57198;52.082;5.108;2023-03-26T03:43:56;33.10;;;6.87;;
69912;SDS011;57198;52.082;5.108;2023-03-26T03:46:28;30.48;;;6.32;;
69912;SDS011;57198;52.082;5.108;2023-03-26T03:48:55;33.83;;;7.55;;
69912;SDS011;57198;52.082;5.108;2023-03-26T03:51:33;36.08;;;7.43;;
69912;SDS011;57198;52.082;5.108;2023-03-26T03:54:18;36.95;;;8.27;;
69912;SDS011;57198;52.082;5.108;2023-03-26T03:56:46;37.43;;;7.50;;
69912;SDS011;57198;52.082;5.108;2023-03-26T03:59:29;36.55;;;7.30;;
69912;SDS011;57198;52.082;5.108;2023-03-26T04:01:57;36.42;;;7.40;;
69912;SDS011;57198;52.082;5.108;2023-03-26T04:04:40;39.95;;;8.55;;
69912;SDS011;57198;52.082;5.108;2023-03-26T04:07:10;48.28;;;7.93;;
69912;SDS011;57198;52.082;5.108;2023-03-26T04:09:58;35.60;;;7.97;;
69912;SDS011;57198;52.082;5.108;2023-03-26T04:12:30;45.25;;;7.70;;
69912;SDS011;57198;52.082;5.108;2023-03-26T04:15:00;34.38;;;8.50;;
69912;SDS011;57198;52.082;5.108;2023-03-26T04:17:27;39.40;;;8.85;;
69912;SDS011;57198;52.082;5.108;2023-03-26T04:19:58;33.47;;;8.00;;
69912;SDS011;57198;52.082;5.108;2023-03-26T04:22:38;41.03;;;8.17;;
69912;SDS011;57198;52.082;5.108;2023-03-26T04:25:07;37.88;;;8.20;;
69912;SDS011;57198;52.082;5.108;2023-03-26T04:27:50;35.70;;;9.35;;
69912;SDS011;57198;52.082;5.108;2023-03-26T04:30:38;33.15;;;8.45;;
69912;SDS011;57198;52.082;5.108;2023-03-26T04:33:31;31.85;;;7.88;;
69912;SDS011;57198;52.082;5.108;2023-03-26T04:36:00;36.87;;;7.33;;
69912;SDS011;57198;52.082;5.108;2023-03-26T04:38:33;40.75;;;8.40;;
69912;SDS011;57198;52.082;5.108;2023-03-26T04:41:03;29.40;;;8.00;;
69912;SDS011;57198;52.082;5.108;2023-03-26T04:43:42;26.95;;;6.95;;
69912;SDS011;57198;52.082;5.108;2023-03-26T04:46:22;36.30;;;9.10;;
69912;SDS011;57198;52.082;5.108;2023-03-26T04:49:00;38.23;;;8.10;;
69912;SDS011;57198;52.082;5.108;2023-03-26T04:51:29;34.45;;;9.18;;
69912;SDS011;57198;52.082;5.108;2023-03-26T04:54:00;34.03;;;8.40;;
69912;SDS011;57198;52.082;5.108;2023-03-26T04:56:35;37.58;;;7.70;;
69912;SDS011;57198;52.082;5.108;2023-03-26T04:59:43;40.17;;;8.15;;
69912;SDS011;57198;52.082;5.108;2023-03-26T05:02:12;33.80;;;7.90;;
69912;SDS011;57198;52.082;5.108;2023-03-26T05:04:46;39.45;;;7.40;;
69912;SDS011;57198;52.082;5.108;2023-03-26T05:07:17;32.75;;;7.72;;
69912;SDS011;57198;52.082;5.108;2023-03-26T05:09:52;29.30;;;7.35;;
69912;SDS011;57198;52.082;5.108;2023-03-26T05:12:38;30.92;;;8.15;;
69912;SDS011;57198;52.082;5.108;2023-03-26T05:15:09;34.77;;;7.83;;
69912;SDS011;57198;52.082;5.108;2023-03-26T05:18:03;26.10;;;7.53;;
69912;SDS011;57198;52.082;5.108;2023-03-26T05:20:36;32.42;;;7.90;;
69912;SDS011;57198;52.082;5.108;2023-03-26T05:23:05;33.45;;;8.18;;
69912;SDS011;57198;52.082;5.108;2023-03-26T05:25:56;35.42;;;8.35;;
69912;SDS011;57198;52.082;5.108;2023-03-26T05:28:24;35.83;;;7.80;;
69912;SDS011;57198;52.082;5.108;2023-03-26T05:30:56;40.58;;;8.38;;
69912;SDS011;57198;52.082;5.108;2023-03-26T05:33:26;32.30;;;8.50;;
69912;SDS011;57198;52.082;5.108;2023-03-26T05:36:02;36.65;;;7.97;;
69912;SDS011;57198;52.082;5.108;2023-03-26T05:38:31;36.58;;;8.68;;
69912;SDS011;57198;52.082;5.108;2023-03-26T05:41:00;42.73;;;8.40;;
69912;SDS011;57198;52.082;5.108;2023-03-26T05:43:29;38.22;;;7.93;;
69912;SDS011;57198;52.082;5.108;2023-03-26T05:46:09;36.28;;;9.18;;
69912;SDS011;57198;52.082;5.108;2023-03-26T05:48:37;34.63;;;8.02;;
69912;SDS011;57198;52.082;5.108;2023-03-26T05:51:05;24.33;;;8.00;;
69912;SDS011;57198;52.082;5.108;2023-03-26T05:53:34;35.47;;;7.90;;
69912;SDS011;57198;52.082;5.108;2023-03-26T05:56:20;29.38;;;7.43;;
69912;SDS011;57198;52.082;5.108;2023-03-26T05:59:07;32.42;;;8.40;;
69912;SDS011;57198;52.082;5.108;2023-03-26T06:01:54;36.65;;;8.15;;
69912;SDS011;57198;52.082;5.108;2023-03-26T06:04:39;31.13;;;8.27;;
69912;SDS011;57198;52.082;5.108;2023-03-26T06:07:20;28.60;;;7.40;;
69912;SDS011;57198;52.082;5.108;2023-03-26T06:10:06;38.67;;;7.80;;
69912;SDS011;57198;52.082;5.108;2023-03-26T06:12:34;32.42;;;8.55;;
69912;SDS011;57198;52.082;5.108;2023-03-26T06:15:03;38.90;;;7.30;;
69912;SDS011;57198;52.082;5.108;2023-03-26T06:18:00;33.92;;;8.10;;
69912;SDS011;57198;52.082;5.108;2023-03-26T06:20:46;27.67;;;7.13;;
69912;SDS011;57198;52.082;5.108;2023-03-26T06:23:23;24.70;;;7.47;;
69912;SDS011;57198;52.082;5.108;2023-03-26T06:26:03;25.77;;;7.80;;
69912;SDS011;57198;52.082;5.108;2023-03-26T06:28:58;29.90;;;7.15;;
69912;SDS011;57198;52.082;5.108;2023-03-26T06:31:51;31.13;;;7.38;;
69912;SDS011;57198;52.082;5.108;2023-03-26T06:34:24;31.60;;;8.17;;
69912;SDS011;57198;52.082;5.108;2023-03-26T06:36:52;26.90;;;7.20;;
69912;SDS011;57198;52.082;5.108;2023-03-26T06:39:20;36.30;;;7.93;;
69912;SDS011;57198;52.082;5.108;2023-03-26T06:41:58;23.23;;;7.90;;
69912;SDS011;57198;52.082;5.108;2023-03-26T06:44:38;35.92;;;8.13;;
69912;SDS011;57198;52.082;5.108;2023-03-26T06:47:25;30.57;;;7.73;;
69912;SDS011;57198;52.082;5.108;2023-03-26T06:49:52;42.33;;;10.98;;
69912;SDS011;57198;52.082;5.108;2023-03-26T06:52:35;35.60;;;8.05;;
69912;SDS011;57198;52.082;5.108;2023-03-26T06:55:13;26.77;;;7.50;;
69912;SDS011;57198;52.082;5.108;2023-03-26T06:57:53;31.77;;;7.82;;
69912;SDS011;57198;52.082;5.108;2023-03-26T07:00:41;31.40;;;6.87;;
69912;SDS011;57198;52.082;5.108;2023-03-26T07:03:27;28.13;;;7.45;;
69912;SDS011;57198;52.082;5.108;2023-03-26T07:06:14;31.17;;;6.93;;
69912;SDS011;57198;52.082;5.108;2023-03-26T07:09:00;37.30;;;9.35;;
69912;SDS011;57198;52.082;5.108;2023-03-26T07:11:40;30.23;;;9.40;;
69912;SDS011;57198;52.082;5.108;2023-03-26T07:14:26;29.03;;;7.53;;
69912;SDS011;57198;52.082;5.108;2023-03-26T07:17:06;26.88;;;7.60;;
69912;SDS011;57198;52.082;5.108;2023-03-26T07:19:51;32.08;;;8.07;;
69912;SDS011;57198;52.082;5.108;2023-03-26T07:22:24;30.45;;;7.78;;
69912;SDS011;57198;52.082;5.108;2023-03-26T07:25:10;27.65;;;8.07;;
69912;SDS011;57198;52.082;5.108;2023-03-26T07:28:22;25.37;;;7.97;;
69912;SDS011;57198;52.082;5.108;2023-03-26T07:33:49;34.75;;;8.73;;
69912;SDS011;57198;52.082;5.108;2023-03-26T07:39:34;37.33;;;9.95;;
69912;SDS011;57198;52.082;5.108;2023-03-26T07:42:15;40.90;;;12.23;;
69912;SDS011;57198;52.082;5.108;2023-03-26T07:48:25;32.08;;;11.32;;
69912;SDS011;57198;52.082;5.108;2023-03-26T07:51:28;30.42;;;7.80;;
69912;SDS011;57198;52.082;5.108;2023-03-26T07:54:08;38.08;;;8.40;;
69912;SDS011;57198;52.082;5.108;2023-03-26T07:56:37;34.27;;;8.77;;
69912;SDS011;57198;52.082;5.108;2023-03-26T08:02:24;34.83;;;8.10;;
69912;SDS011;57198;52.082;5.108;2023-03-26T08:06:11;25.80;;;7.38;;
69912;SDS011;57198;52.082;5.108;2023-03-26T08:11:41;28.13;;;7.90;;
69912;SDS011;57198;52.082;5.108;2023-03-26T08:16:46;26.83;;;8.60;;
69912;SDS011;57198;52.082;5.108;2023-03-26T08:21:53;41.90;;;10.10;;
69912;SDS011;57198;52.082;5.108;2023-03-26T08:24:34;30.67;;;7.80;;
69912;SDS011;57198;52.082;5.108;2023-03-26T08:32:02;35.78;;;9.45;;
69912;SDS011;57198;52.082;5.108;2023-03-26T08:34:30;42.15;;;9.80;;
69912;SDS011;57198;52.082;5.108;2023-03-26T08:36:57;37.60;;;9.57;;
69912;SDS011;57198;52.082;5.108;2023-03-26T08:39:25;37.28;;;8.75;;
69912;SDS011;57198;52.082;5.108;2023-03-26T08:52:34;35.05;;;9.52;;
69912;SDS011;57198;52.082;5.108;2023-03-26T09:00:02;34.70;;;10.02;;
69912;SDS011;57198;52.082;5.108;2023-03-26T09:07:47;28.25;;;10.13;;
69912;SDS011;57198;52.082;5.108;2023-03-26T09:36:13;20.88;;;8.85;;
69912;SDS011;57198;52.082;5.108;2023-03-26T09:38:48;16.55;;;8.18;;
69912;SDS011;57198;52.082;5.108;2023-03-26T09:46:57;17.75;;;8.73;;
69912;SDS011;57198;52.082;5.108;2023-03-26T09:52:15;17.42;;;7.97;;
69912;SDS011;57198;52.082;5.108;2023-03-26T09:57:36;101.82;;;58.38;;
69912;SDS011;57198;52.082;5.108;2023-03-26T10:00:18;22.33;;;12.15;;
69912;SDS011;57198;52.082;5.108;2023-03-26T10:02:50;15.73;;;7.28;;
69912;SDS011;57198;52.082;5.108;2023-03-26T10:08:16;18.57;;;6.80;;
69912;SDS011;57198;52.082;5.108;2023-03-26T10:13:57;19.13;;;7.00;;
69912;SDS011;57198;52.082;5.108;2023-03-26T10:19:18;14.02;;;8.05;;
69912;SDS011;57198;52.082;5.108;2023-03-26T10:35:25;13.60;;;5.93;;
69912;SDS011;57198;52.082;5.108;2023-03-26T10:40:31;18.75;;;7.28;;
69912;SDS011;57198;52.082;5.108;2023-03-26T10:53:53;13.35;;;5.30;;
69912;SDS011;57198;52.082;5.108;2023-03-26T10:56:25;10.77;;;4.28;;
69912;SDS011;57198;52.082;5.108;2023-03-26T10:58:53;12.52;;;4.68;;
69912;SDS011;57198;52.082;5.108;2023-03-26T11:04:02;10.48;;;3.95;;
69912;SDS011;57198;52.082;5.108;2023-03-26T11:06:39;15.00;;;4.20;;
69912;SDS011;57198;52.082;5.108;2023-03-26T11:09:14;11.45;;;4.75;;
69912;SDS011;57198;52.082;5.108;2023-03-26T11:30:28;13.80;;;3.38;;
69912;SDS011;57198;52.082;5.108;2023-03-26T11:32:59;16.67;;;3.78;;
69912;SDS011;57198;52.082;5.108;2023-03-26T11:35:32;14.45;;;4.03;;
69912;SDS011;57198;52.082;5.108;2023-03-26T11:40:52;14.60;;;3.50;;
69912;SDS011;57198;52.082;5.108;2023-03-26T11:43:49;13.32;;;3.20;;
69912;SDS011;57198;52.082;5.108;2023-03-26T11:46:19;13.95;;;4.03;;
69912;SDS011;57198;52.082;5.108;2023-03-26T11:48:54;13.88;;;4.00;;
69912;SDS011;57198;52.082;5.108;2023-03-26T11:51:31;15.57;;;3.35;;
69912;SDS011;57198;52.082;5.108;2023-03-26T11:53:59;13.33;;;3.30;;
69912;SDS011;57198;52.082;5.108;2023-03-26T11:56:30;12.75;;;4.47;;
69912;SDS011;57198;52.082;5.108;2023-03-26T11:59:03;13.93;;;3.85;;
69912;SDS011;57198;52.082;5.108;2023-03-26T12:01:40;12.82;;;3.30;;
69912;SDS011;57198;52.082;5.108;2023-03-26T12:04:10;13.63;;;3.75;;
69912;SDS011;57198;52.082;5.108;2023-03-26T12:06:39;20.63;;;3.70;;
69912;SDS011;57198;52.082;5.108;2023-03-26T12:09:16;14.70;;;2.95;;
69912;SDS011;57198;52.082;5.108;2023-03-26T12:11:46;17.13;;;3.92;;
69912;SDS011;57198;52.082;5.108;2023-03-26T12:14:18;16.17;;;3.38;;
69912;SDS011;57198;52.082;5.108;2023-03-26T12:19:23;11.90;;;2.93;;
69912;SDS011;57198;52.082;5.108;2023-03-26T12:21:54;9.95;;;2.75;;
69912;SDS011;57198;52.082;5.108;2023-03-26T12:24:27;13.15;;;3.40;;
69912;SDS011;57198;52.082;5.108;2023-03-26T12:26:56;15.68;;;3.45;;
69912;SDS011;57198;52.082;5.108;2023-03-26T12:29:27;11.57;;;3.28;;
69912;SDS011;57198;52.082;5.108;2023-03-26T12:32:04;14.43;;;3.13;;
69912;SDS011;57198;52.082;5.108;2023-03-26T12:34:33;14.13;;;3.10;;
69912;SDS011;57198;52.082;5.108;2023-03-26T12:37:01;12.68;;;3.35;;
69912;SDS011;57198;52.082;5.108;2023-03-26T12:39:39;11.10;;;3.50;;
69912;SDS011;57198;52.082;5.108;2023-03-26T12:42:31;13.13;;;2.53;;
69912;SDS011;57198;52.082;5.108;2023-03-26T12:45:21;14.03;;;3.27;;
69912;SDS011;57198;52.082;5.108;2023-03-26T12:47:49;11.88;;;3.05;;
69912;SDS011;57198;52.082;5.108;2023-03-26T12:50:31;12.88;;;3.22;;
69912;SDS011;57198;52.082;5.108;2023-03-26T12:53:14;10.77;;;3.55;;
69912;SDS011;57198;52.082;5.108;2023-03-26T13:03:58;11.88;;;2.67;;
69912;SDS011;57198;52.082;5.108;2023-03-26T13:06:50;14.77;;;3.08;;
69912;SDS011;57198;52.082;5.108;2023-03-26T13:09:31;10.20;;;2.72;;
69912;SDS011;57198;52.082;5.108;2023-03-26T13:14:33;9.07;;;2.70;;
69912;SDS011;57198;52.082;5.108;2023-03-26T13:19:33;11.85;;;2.67;;
69912;SDS011;57198;52.082;5.108;2023-03-26T13:22:18;13.65;;;3.17;;
69912;SDS011;57198;52.082;5.108;2023-03-26T13:24:50;10.00;;;3.00;;
69912;SDS011;57198;52.082;5.108;2023-03-26T13:35:30;8.55;;;2.33;;
69912;SDS011;57198;52.082;5.108;2023-03-26T13:40:36;11.55;;;3.13;;
69912;SDS011;57198;52.082;5.108;2023-03-26T13:43:18;10.10;;;3.08;;
69912;SDS011;57198;52.082;5.108;2023-03-26T13:45:55;9.52;;;2.78;;
69912;SDS011;57198;52.082;5.108;2023-03-26T13:48:26;11.57;;;2.67;;
69912;SDS011;57198;52.082;5.108;2023-03-26T13:51:05;7.10;;;2.30;;
69912;SDS011;57198;52.082;5.108;2023-03-26T13:53:58;9.65;;;2.30;;
69912;SDS011;57198;52.082;5.108;2023-03-26T13:56:24;9.05;;;2.53;;
69912;SDS011;57198;52.082;5.108;2023-03-26T13:58:56;8.68;;;2.53;;
69912;SDS011;57198;52.082;5.108;2023-03-26T14:01:30;8.18;;;2.33;;
69912;SDS011;57198;52.082;5.108;2023-03-26T14:09:13;9.27;;;2.60;;
69912;SDS011;57198;52.082;5.108;2023-03-26T14:14:30;10.88;;;2.78;;
69912;SDS011;57198;52.082;5.108;2023-03-26T14:17:21;7.47;;;2.40;;
69912;SDS011;57198;52.082;5.108;2023-03-26T14:32:43;8.98;;;3.13;;
69912;SDS011;57198;52.082;5.108;2023-03-26T14:48:29;9.68;;;2.00;;
69912;SDS011;57198;52.082;5.108;2023-03-26T14:53:45;6.53;;;3.25;;
69912;SDS011;57198;52.082;5.108;2023-03-26T15:02:27;8.82;;;2.35;;
69912;SDS011;57198;52.082;5.108;2023-03-26T15:10:09;7.37;;;2.33;;
69912;SDS011;57198;52.082;5.108;2023-03-26T15:15:29;8.55;;;2.42;;
69912;SDS011;57198;52.082;5.108;2023-03-26T15:31:17;8.57;;;2.30;;
69912;SDS011;57198;52.082;5.108;2023-03-26T15:42:07;6.50;;;2.35;;
69912;SDS011;57198;52.082;5.108;2023-03-26T15:44:41;7.07;;;2.55;;
69912;SDS011;57198;52.082;5.108;2023-03-26T15:57:44;9.30;;;3.50;;
69912;SDS011;57198;52.082;5.108;2023-03-26T16:00:29;11.50;;;3.55;;
69912;SDS011;57198;52.082;5.108;2023-03-26T16:26:26;8.18;;;2.42;;
69912;SDS011;57198;52.082;5.108;2023-03-26T16:29:18;7.40;;;2.30;;
69912;SDS011;57198;52.082;5.108;2023-03-26T16:37:33;8.30;;;2.88;;
69912;SDS011;57198;52.082;5.108;2023-03-26T16:45:30;10.02;;;2.65;;
69912;SDS011;57198;52.082;5.108;2023-03-26T16:55:58;6.57;;;2.53;;
69912;SDS011;57198;52.082;5.108;2023-03-26T17:03:31;10.00;;;3.78;;
69912;SDS011;57198;52.082;5.108;2023-03-26T17:16:27;4.60;;;2.15;;
69912;SDS011;57198;52.082;5.108;2023-03-26T17:27:49;8.57;;;2.60;;
69912;SDS011;57198;52.082;5.108;2023-03-26T17:32:58;7.85;;;2.38;;
69912;SDS011;57198;52.082;5.108;2023-03-26T17:35:45;15.23;;;9.90;;
69912;SDS011;57198;52.082;5.108;2023-03-26T17:40:56;7.03;;;3.60;;
69912;SDS011;57198;52.082;5.108;2023-03-26T17:45:59;5.10;;;2.08;;
69912;SDS011;57198;52.082;5.108;2023-03-26T17:48:30;7.13;;;2.67;;
69912;SDS011;57198;52.082;5.108;2023-03-26T17:51:16;8.95;;;2.72;;
69912;SDS011;57198;52.082;5.108;2023-03-26T17:53:44;11.48;;;3.17;;
69912;SDS011;57198;52.082;5.108;2023-03-26T17:56:13;5.43;;;2.33;;
69912;SDS011;57198;52.082;5.108;2023-03-26T17:58:41;7.38;;;2.55;;
69912;SDS011;57198;52.082;5.108;2023-03-26T18:03:38;7.97;;;2.17;;
69912;SDS011;57198;52.082;5.108;2023-03-26T18:06:13;8.57;;;2.55;;
69912;SDS011;57198;52.082;5.108;2023-03-26T18:08:55;6.60;;;2.22;;
69912;SDS011;57198;52.082;5.108;2023-03-26T18:11:36;8.75;;;2.45;;
69912;SDS011;57198;52.082;5.108;2023-03-26T18:16:39;7.07;;;2.10;;
69912;SDS011;57198;52.082;5.108;2023-03-26T18:19:09;6.90;;;2.30;;
69912;SDS011;57198;52.082;5.108;2023-03-26T18:21:45;8.38;;;2.85;;
69912;SDS011;57198;52.082;5.108;2023-03-26T18:26:48;8.40;;;2.00;;
69912;SDS011;57198;52.082;5.108;2023-03-26T18:31:45;7.30;;;2.97;;
69912;SDS011;57198;52.082;5.108;2023-03-26T18:34:15;7.95;;;2.25;;
69912;SDS011;57198;52.082;5.108;2023-03-26T18:36:45;6.47;;;2.33;;
69912;SDS011;57198;52.082;5.108;2023-03-26T18:39:12;6.63;;;2.20;;
69912;SDS011;57198;52.082;5.108;2023-03-26T18:41:39;7.07;;;1.90;;
69912;SDS011;57198;52.082;5.108;2023-03-26T18:44:14;8.00;;;2.63;;
69912;SDS011;57198;52.082;5.108;2023-03-26T18:46:43;7.22;;;1.90;;
69912;SDS011;57198;52.082;5.108;2023-03-26T18:49:11;7.57;;;2.35;;
69912;SDS011;57198;52.082;5.108;2023-03-26T18:51:39;10.50;;;2.43;;
69912;SDS011;57198;52.082;5.108;2023-03-26T18:54:21;5.82;;;2.20;;
69912;SDS011;57198;52.082;5.108;2023-03-26T18:56:49;9.25;;;2.53;;
69912;SDS011;57198;52.082;5.108;2023-03-26T19:01:54;3.05;;;1.77;;
69912;SDS011;57198;52.082;5.108;2023-03-26T19:04:25;8.00;;;3.00;;
69912;SDS011;57198;52.082;5.108;2023-03-26T19:06:56;9.68;;;2.70;;
69912;SDS011;57198;52.082;5.108;2023-03-26T19:09:23;9.40;;;3.10;;
69912;SDS011;57198;52.082;5.108;2023-03-26T19:12:03;9.35;;;2.47;;
69912;SDS011;57198;52.082;5.108;2023-03-26T19:14:31;7.90;;;2.58;;
69912;SDS011;57198;52.082;5.108;2023-03-26T19:17:02;7.73;;;2.27;;
69912;SDS011;57198;52.082;5.108;2023-03-26T19:19:33;8.20;;;2.28;;
69912;SDS011;57198;52.082;5.108;2023-03-26T19:22:05;7.97;;;2.67;;
69912;SDS011;57198;52.082;5.108;2023-03-26T19:24:33;7.47;;;2.55;;
69912;SDS011;57198;52.082;5.108;2023-03-26T19:27:00;3.63;;;2.25;;
69912;SDS011;57198;52.082;5.108;2023-03-26T19:29:29;9.80;;;3.63;;
69912;SDS011;57198;52.082;5.108;2023-03-26T19:32:04;7.30;;;3.03;;
69912;SDS011;57198;52.082;5.108;2023-03-26T19:34:33;5.93;;;2.75;;
69912;SDS011;57198;52.082;5.108;2023-03-26T19:37:01;9.75;;;4.20;;
69912;SDS011;57198;52.082;5.108;2023-03-26T19:42:03;24.90;;;11.00;;
69912;SDS011;57198;52.082;5.108;2023-03-26T19:44:31;19.13;;;9.07;;
69912;SDS011;57198;52.082;5.108;2023-03-26T19:47:04;17.17;;;7.00;;
69912;SDS011;57198;52.082;5.108;2023-03-26T19:49:54;7.95;;;2.92;;
69912;SDS011;57198;52.082;5.108;2023-03-26T19:52:21;5.30;;;2.70;;
69912;SDS011;57198;52.082;5.108;2023-03-26T19:54:51;10.73;;;3.50;;
69912;SDS011;57198;52.082;5.108;2023-03-26T19:57:29;8.75;;;4.15;;
69912;SDS011;57198;52.082;5.108;2023-03-26T20:00:04;11.95;;;3.83;;
69912;SDS011;57198;52.082;5.108;2023-03-26T20:02:42;9.10;;;2.72;;
69912;SDS011;57198;52.082;5.108;2023-03-26T20:05:14;14.43;;;6.65;;
69912;SDS011;57198;52.082;5.108;2023-03-26T20:07:44;15.47;;;6.33;;
69912;SDS011;57198;52.082;5.108;2023-03-26T20:10:12;11.45;;;3.83;;
69912;SDS011;57198;52.082;5.108;2023-03-26T20:12:39;6.05;;;3.45;;
69912;SDS011;57198;52.082;5.108;2023-03-26T20:15:14;7.50;;;2.30;;
69912;SDS011;57198;52.082;5.108;2023-03-26T20:17:45;12.77;;;4.57;;
69912;SDS011;57198;52.082;5.108;2023-03-26T20:20:15;7.70;;;2.90;;
69912;SDS011;57198;52.082;5.108;2023-03-26T20:22:43;7.15;;;2.38;;
69912;SDS011;57198;52.082;5.108;2023-03-26T20:25:14;8.68;;;3.10;;
69912;SDS011;57198;52.082;5.108;2023-03-26T20:27:48;10.30;;;4.03;;
69912;SDS011;57198;52.082;5.108;2023-03-26T20:30:18;19.10;;;5.35;;
69912;SDS011;57198;52.082;5.108;2023-03-26T20:33:02;11.10;;;3.60;;
69912;SDS011;57198;52.082;5.108;2023-03-26T20:35:39;13.73;;;5.70;;
69912;SDS011;57198;52.082;5.108;2023-03-26T20:38:07;11.27;;;5.30;;
69912;SDS011;57198;52.082;5.108;2023-03-26T20:40:35;10.82;;;4.07;;
69912;SDS011;57198;52.082;5.108;2023-03-26T20:43:04;9.57;;;4.65;;
69912;SDS011;57198;52.082;5.108;2023-03-26T20:45:32;6.67;;;3.10;;
69912;SDS011;57198;52.082;5.108;2023-03-26T20:47:59;11.40;;;3.15;;
69912;SDS011;57198;52.082;5.108;2023-03-26T20:50:28;8.88;;;2.78;;
69912;SDS011;57198;52.082;5.108;2023-03-26T20:52:56;24.15;;;11.80;;
69912;SDS011;57198;52.082;5.108;2023-03-26T20:55:25;7.32;;;3.25;;
69912;SDS011;57198;52.082;5.108;2023-03-26T20:57:53;11.93;;;4.13;;
69912;SDS011;57198;52.082;5.108;2023-03-26T21:00:21;14.15;;;5.05;;
69912;SDS011;57198;52.082;5.108;2023-03-26T21:02:49;8.50;;;2.70;;
69912;SDS011;57198;52.082;5.108;2023-03-26T21:05:22;8.45;;;4.18;;
69912;SDS011;57198;52.082;5.108;2023-03-26T21:07:51;5.07;;;2.30;;
69912;SDS011;57198;52.082;5.108;2023-03-26T21:10:19;11.07;;;3.67;;
69912;SDS011;57198;52.082;5.108;2023-03-26T21:15:17;10.23;;;3.88;;
69912;SDS011;57198;52.082;5.108;2023-03-26T21:17:49;7.65;;;2.72;;